Time;durP1;ratioP1;P1;durP2;ratioP2;P2;SDS_P1;SDS_P2;PMS_P1;PMS_P2;Temp;Humidity;BMP_temperature;BMP_pressure;BME280_temperature;BME280_humidity;BME280_pressure;Samples;Min_cycle;Max_cycle;Signal;HPM_P1;HPM_P2
2022/06/01 00:02:57;;;;;;;20.52;16.13;;;;;;;10.99;79.59;101284.38;10499094;28;20098;-80
2022/06/01 00:07:59;;;;;;;24.15;17.58;;;;;;;10.84;79.79;101295.13;10484352;28;20068;-80
2022/06/01 00:13:00;;;;;;;23.52;17.83;;;;;;;10.98;79.58;101290.41;10480736;28;20373;-80
2022/06/01 00:18:02;;;;;;;23.73;17.55;;;;;;;10.89;79.79;101290.09;10498477;28;20568;-80
2022/06/01 00:23:04;;;;;;;21.70;16.73;;;;;;;10.79;79.89;101289.81;10498894;28;20040;-79
2022/06/01 00:28:06;;;;;;;22.65;17.13;;;;;;;10.47;80.30;101291.38;10498533;28;20048;-79
2022/06/01 00:33:08;;;;;;;22.92;16.77;;;;;;;10.36;81.29;101296.13;10498073;28;20053;-80
2022/06/01 00:38:10;;;;;;;22.83;17.02;;;;;;;10.73;79.86;101299.03;10498016;28;20048;-79
2022/06/01 00:43:23;;;;;;;22.70;16.45;;;;;;;10.41;79.79;101297.19;10497972;28;20036;-80
2022/06/01 00:48:27;;;;;;;20.00;15.80;;;;;;;10.43;79.90;101304.94;10480047;28;20074;-80
2022/06/01 00:53:33;;;;;;;22.80;16.73;;;;;;;10.33;79.83;101303.75;10479493;28;20052;-80
2022/06/01 00:58:38;;;;;;;21.27;16.67;;;;;;;10.28;79.92;101300.16;10496231;28;20052;-80
2022/06/01 01:03:42;;;;;;;21.00;15.52;;;;;;;10.16;80.06;101301.47;10496619;28;20446;-80
2022/06/01 01:08:46;;;;;;;21.20;16.02;;;;;;;10.10;80.23;101306.41;10503050;28;20045;-80
2022/06/01 01:13:50;;;;;;;20.48;15.10;;;;;;;10.07;80.16;101301.19;10502749;28;20082;-79
2022/06/01 01:18:55;;;;;;;20.80;14.35;;;;;;;10.03;79.92;101308.75;10502744;28;20052;-80
2022/06/01 01:23:59;;;;;;;18.88;14.25;;;;;;;10.04;80.40;101305.34;10484672;28;20053;-80
2022/06/01 01:29:09;;;;;;;20.88;15.65;;;;;;;10.08;80.24;101295.22;10502447;28;20048;-80
2022/06/01 01:34:10;;;;;;;20.47;16.27;;;;;;;10.11;80.36;101291.88;10502152;28;20037;-80
2022/06/01 01:39:15;;;;;;;21.92;15.93;;;;;;;10.28;80.37;101289.84;10467701;28;20045;-80
2022/06/01 01:44:21;;;;;;;19.38;14.75;;;;;;;10.23;79.96;101294.84;10483929;28;20110;-80
2022/06/01 01:49:33;;;;;;;21.42;14.93;;;;;;;10.26;80.46;101302.69;10501871;28;20044;-80
2022/06/01 02:00:15;;;;;;;23.27;16.38;;;;;;;10.32;80.53;101302.00;10573521;27;20384;-82
2022/06/01 02:16:15;;;;;;;24.45;17.27;;;;;;;10.37;81.31;101305.66;10514333;28;20542;-82
2022/06/01 02:21:21;;;;;;;23.27;16.80;;;;;;;10.31;81.20;101305.41;10537379;28;20055;-82
2022/06/01 02:26:23;;;;;;;22.40;16.83;;;;;;;10.38;81.28;101303.94;10538638;28;20052;-81
2022/06/01 02:31:25;;;;;;;24.25;18.02;;;;;;;10.47;81.11;101294.81;10533135;28;20135;-82
2022/06/01 02:36:27;;;;;;;23.10;17.77;;;;;;;10.50;80.97;101290.59;10511677;28;20098;-82
2022/06/01 02:46:50;;;;;;;26.60;18.23;;;;;;;10.59;80.27;101290.88;10530560;28;20509;-82
2022/06/01 02:51:51;;;;;;;24.95;18.98;;;;;;;10.61;80.78;101295.25;10540512;28;20105;-82
2022/06/01 02:56:53;;;;;;;25.35;18.77;;;;;;;10.57;80.93;101298.59;10528938;28;20118;-81
2022/06/01 03:01:54;;;;;;;27.35;18.67;;;;;;;10.79;80.60;101304.41;10528336;28;20066;-82
2022/06/01 03:06:56;;;;;;;24.42;18.65;;;;;;;10.74;81.01;101305.94;10530152;28;20082;-82
2022/06/01 03:12:09;;;;;;;26.33;18.92;;;;;;;10.74;80.52;101317.16;10501216;28;20501;-82
2022/06/01 03:17:11;;;;;;;24.65;18.27;;;;;;;10.52;81.44;101319.84;10512119;28;20075;-83
2022/06/01 03:22:12;;;;;;;18.75;14.07;;;;;;;10.59;81.48;101301.19;10506085;28;20052;-81
2022/06/01 03:27:14;;;;;;;20.30;14.63;;;;;;;10.66;81.61;101298.00;10496713;28;20417;-81
2022/06/01 03:32:16;;;;;;;19.40;14.15;;;;;;;10.60;81.82;101293.50;10509953;28;20050;-80
2022/06/01 03:37:18;;;;;;;18.77;13.60;;;;;;;10.74;81.85;101296.53;10497464;28;20048;-80
2022/06/01 03:42:19;;;;;;;21.65;14.52;;;;;;;10.75;81.77;101298.28;10507634;28;20460;-81
2022/06/01 03:47:21;;;;;;;19.13;14.35;;;;;;;10.70;82.16;101293.81;10506634;28;20501;-81
2022/06/01 03:52:25;;;;;;;17.17;12.60;;;;;;;10.67;82.22;101292.00;10507669;28;20052;-81
2022/06/01 03:57:27;;;;;;;16.58;11.35;;;;;;;10.77;82.18;101294.03;10498509;28;20044;-81
2022/06/01 04:02:28;;;;;;;15.98;10.75;;;;;;;10.81;82.01;101294.16;10496164;28;20102;-81
2022/06/01 04:07:30;;;;;;;13.27;10.40;;;;;;;10.33;83.04;101288.28;10506617;28;20049;-80
2022/06/01 04:12:31;;;;;;;16.55;11.38;;;;;;;10.26;84.14;101292.38;10496656;28;20045;-82
2022/06/01 04:17:33;;;;;;;16.63;11.63;;;;;;;10.34;84.15;101295.19;10497479;28;20049;-82
2022/06/01 04:22:39;;;;;;;15.63;11.73;;;;;;;10.40;84.37;101295.44;10500361;28;20063;-80
2022/06/01 04:27:40;;;;;;;15.93;11.90;;;;;;;10.59;83.85;101296.03;10507480;28;20056;-80
2022/06/01 04:32:45;;;;;;;18.25;11.95;;;;;;;10.47;84.15;101306.81;10470067;28;20090;-81
2022/06/01 04:37:47;;;;;;;19.05;13.23;;;;;;;10.35;84.30;101296.97;10502671;28;20118;-80
2022/06/01 04:42:48;;;;;;;19.98;14.68;;;;;;;10.63;84.66;101298.78;10502351;28;20102;-82
2022/06/01 04:47:50;;;;;;;20.65;15.35;;;;;;;10.57;84.56;101293.44;10487346;28;20673;-82
2022/06/01 04:52:51;;;;;;;22.42;15.65;;;;;;;10.86;84.01;101301.19;10517389;28;20391;-82
2022/06/01 04:57:53;;;;;;;22.92;16.67;;;;;;;10.96;83.54;101304.94;10493504;28;20037;-80
2022/06/01 05:02:54;;;;;;;23.45;16.70;;;;;;;11.03;83.00;101308.56;10500950;28;20502;-82
2022/06/01 05:07:56;;;;;;;29.63;19.58;;;;;;;10.57;83.91;101310.56;10477430;28;20044;-81
2022/06/01 05:12:57;;;;;;;31.23;21.25;;;;;;;10.80;83.97;101306.13;10472157;28;20525;-80
2022/06/01 05:17:59;;;;;;;30.33;21.70;;;;;;;10.79;83.91;101304.41;10470617;28;20079;-81
2022/06/01 05:23:01;;;;;;;29.75;22.80;;;;;;;11.08;83.76;101307.88;10487629;28;20501;-81
2022/06/01 05:28:06;;;;;;;34.50;24.55;;;;;;;11.25;83.56;101304.94;10479813;28;20069;-79
2022/06/01 05:33:07;;;;;;;34.75;25.55;;;;;;;11.26;83.34;101304.97;10451700;28;20041;-80
2022/06/01 05:38:09;;;;;;;38.33;27.20;;;;;;;11.26;82.64;101306.69;10454070;28;20055;-81
2022/06/01 05:43:12;;;;;;;38.28;27.15;;;;;;;11.36;82.40;101308.69;10487000;28;20068;-80
2022/06/01 05:48:17;;;;;;;39.58;26.70;;;;;;;11.47;82.24;101309.00;10490069;28;20045;-82
2022/06/01 05:53:18;;;;;;;34.20;25.10;;;;;;;11.64;81.53;101309.50;10475615;28;20463;-81
2022/06/01 05:58:23;;;;;;;40.63;26.00;;;;;;;11.75;81.29;101313.22;10474396;28;20463;-82
2022/06/01 06:03:25;;;;;;;37.60;25.08;;;;;;;12.21;80.89;101310.16;10455085;28;20044;-81
2022/06/01 06:08:32;;;;;;;36.85;24.38;;;;;;;12.38;80.07;101303.72;10462748;28;20041;-81
2022/06/01 06:13:34;;;;;;;33.10;23.98;;;;;;;12.33;80.35;101313.06;10449742;28;20535;-83
2022/06/01 06:18:36;;;;;;;36.50;24.63;;;;;;;12.44;79.92;101315.91;10484839;28;20082;-81
2022/06/01 06:23:38;;;;;;;33.53;23.65;;;;;;;12.33;79.32;101327.69;10491432;28;20109;-82
2022/06/01 06:28:40;;;;;;;28.95;20.65;;;;;;;12.52;78.64;101324.72;10499511;28;20494;-82
2022/06/01 06:33:41;;;;;;;27.33;20.77;;;;;;;12.87;79.43;101331.56;10491465;28;20057;-80
2022/06/01 06:38:43;;;;;;;31.60;21.58;;;;;;;13.07;78.80;101336.34;10511959;28;20576;-81
2022/06/01 06:43:44;;;;;;;28.95;20.30;;;;;;;13.44;77.71;101330.28;10492431;28;20040;-82
2022/06/01 06:48:52;;;;;;;28.75;20.13;;;;;;;13.70;76.67;101336.84;10474522;28;20052;-81
2022/06/01 06:53:55;;;;;;;25.88;17.45;;;;;;;14.11;73.13;101344.53;10493527;28;20056;-84
2022/06/01 06:58:58;;;;;;;15.90;12.23;;;;;;;14.20;71.50;101349.88;10486360;28;20036;-83
2022/06/01 07:03:59;;;;;;;16.00;11.63;;;;;;;14.51;71.01;101353.00;10481519;28;20044;-81
2022/06/01 07:09:01;;;;;;;14.05;10.38;;;;;;;14.43;69.98;101358.06;10457543;28;20119;-81
2022/06/01 07:14:03;;;;;;;10.93;8.52;;;;;;;14.59;68.27;101361.78;10486379;28;20067;-80
2022/06/01 07:19:07;;;;;;;12.32;8.38;;;;;;;15.38;69.03;101352.59;10497699;28;20047;-80
2022/06/01 07:24:09;;;;;;;9.02;7.15;;;;;;;14.89;67.43;101365.75;10506335;28;20056;-81
2022/06/01 07:29:13;;;;;;;10.07;7.10;;;;;;;14.45;66.91;101368.44;10498387;28;20117;-80
2022/06/01 07:34:14;;;;;;;8.40;6.80;;;;;;;14.83;67.42;101368.25;10495107;28;20041;-80
2022/06/01 07:44:38;;;;;;;9.80;6.90;;;;;;;15.19;65.88;101377.44;10474847;28;20053;-80
2022/06/01 07:49:39;;;;;;;10.13;6.97;;;;;;;15.59;65.66;101376.25;10494633;28;20048;-79
2022/06/01 07:55:01;;;;;;;7.85;6.10;;;;;;;15.89;63.09;101372.31;10474613;28;20580;-82
2022/06/01 08:00:03;;;;;;;9.70;6.90;;;;;;;15.65;65.02;101373.72;10493390;28;20032;-82
2022/06/01 08:05:15;;;;;;;6.15;5.35;;;;;;;16.01;62.04;101370.69;10468626;28;20055;-81
2022/06/01 08:10:19;;;;;;;9.35;5.78;;;;;;;15.82;60.22;101374.78;10485769;28;20056;-80
2022/06/01 08:15:20;;;;;;;7.50;5.50;;;;;;;16.59;60.55;101363.44;10486256;28;20040;-81
2022/06/01 08:20:28;;;;;;;7.90;4.72;;;;;;;17.42;62.05;101358.81;10486082;28;20036;-81
2022/06/01 08:25:31;;;;;;;6.22;4.13;;;;;;;15.36;58.89;101376.81;10476950;28;20051;-82
2022/06/01 08:30:34;;;;;;;4.97;3.53;;;;;;;16.20;56.83;101370.91;10492479;28;20040;-82
2022/06/01 08:35:40;;;;;;;6.70;4.88;;;;;;;17.23;57.06;101363.06;10489590;28;20056;-80
2022/06/01 08:40:56;;;;;;;8.73;4.72;;;;;;;17.80;55.28;101370.25;10476704;28;20079;-81
2022/06/01 08:46:00;;;;;;;6.82;4.78;;;;;;;17.17;57.66;101362.13;10459581;28;20110;-82
2022/06/01 08:51:03;;;;;;;7.40;4.15;;;;;;;15.76;58.30;101373.84;10472833;28;20139;-80
2022/06/01 08:56:13;;;;;;;7.18;4.47;;;;;;;15.73;59.48;101377.28;10486511;28;20040;-80
2022/06/01 09:01:19;;;;;;;7.05;5.00;;;;;;;17.10;55.96;101372.53;10461109;28;20056;-80
2022/06/01 09:06:36;;;;;;;5.65;4.40;;;;;;;17.52;52.92;101370.13;10474441;28;20032;-79
2022/06/01 09:11:38;;;;;;;7.47;4.18;;;;;;;17.72;54.02;101359.81;10466643;28;20041;-81
2022/06/01 09:16:46;;;;;;;5.32;4.00;;;;;;;17.00;52.72;101367.25;10471113;28;20056;-79
2022/06/01 09:27:34;;;;;;;5.00;3.08;;;;;;;18.05;49.89;101365.13;10486868;28;20040;-80
2022/06/01 09:32:41;;;;;;;5.18;3.38;;;;;;;18.31;49.29;101370.41;10486312;28;20040;-79
2022/06/01 09:37:46;;;;;;;4.60;2.80;;;;;;;17.55;52.99;101364.97;10484398;28;20044;-79
2022/06/01 09:42:50;;;;;;;4.18;3.20;;;;;;;17.12;53.59;101354.31;10479637;28;20082;-79
2022/06/01 09:47:54;;;;;;;4.55;3.10;;;;;;;17.06;54.93;101365.56;10472883;28;20102;-80
2022/06/01 09:53:11;;;;;;;5.28;3.45;;;;;;;17.33;53.21;101352.69;10450876;28;20095;-81
2022/06/01 10:06:05;;;;;;;4.78;3.60;;;;;;;18.61;51.26;101357.38;10474457;28;20048;-78
2022/06/01 10:09:09;;;;;;;4.63;3.15;;;;;;;18.58;47.51;101359.97;10483175;28;20110;-79
2022/06/01 10:14:31;;;;;;;4.28;3.30;;;;;;;19.24;45.95;101346.88;10462828;28;20044;-81
2022/06/01 10:19:32;;;;;;;4.15;2.60;;;;;;;17.84;45.30;101355.47;10477813;28;20059;-80
2022/06/01 10:24:41;;;;;;;5.35;3.20;;;;;;;18.96;47.56;101357.38;10490358;28;20528;-80
2022/06/01 10:29:52;;;;;;;3.88;2.78;;;;;;;17.54;46.90;101358.00;10498890;28;20117;-79
2022/06/01 10:35:27;;;;;;;3.92;2.03;;;;;;;16.99;49.10;101362.88;10472149;28;20059;-80
2022/06/01 10:41:03;;;;;;;5.75;3.20;;;;;;;16.74;50.68;101380.91;10474004;28;20055;-81
2022/06/01 10:46:23;;;;;;;4.90;2.92;;;;;;;16.68;51.57;101384.34;10478296;28;20150;-79
2022/06/01 10:51:30;;;;;;;6.40;3.22;;;;;;;16.37;53.97;101389.25;10475073;28;20420;-79
2022/06/01 10:56:33;;;;;;;5.30;4.28;;;;;;;15.72;55.50;101404.09;10472670;28;20045;-79
2022/06/01 11:01:43;;;;;;;1.00;0.95;;;;;;;15.27;51.45;101413.00;10482136;28;20078;-80
2022/06/01 11:07:18;;;;;;;1.80;1.05;;;;;;;15.35;52.44;101414.00;10470528;28;20069;-79
2022/06/01 11:12:59;;;;;;;1.83;1.63;;;;;;;15.73;54.21;101411.06;10480699;28;20060;-80
2022/06/01 11:18:07;;;;;;;1.75;1.50;;;;;;;16.53;52.16;101405.88;10475237;28;20041;-80
2022/06/01 11:23:34;;;;;;;3.33;1.80;;;;;;;16.44;52.17;101398.00;10476884;28;20117;-81
2022/06/01 11:29:29;;;;;;;4.25;2.53;;;;;;;16.84;55.74;101403.53;10492751;28;20064;-79
2022/06/01 11:34:42;;;;;;;5.63;4.40;;;;;;;16.53;57.90;101405.88;10448194;28;20127;-79
2022/06/01 11:40:17;;;;;;;5.30;2.88;;;;;;;16.38;54.92;101419.59;10450997;28;20525;-80
2022/06/01 11:45:28;;;;;;;4.25;2.88;;;;;;;16.03;53.65;101433.09;10465272;28;20041;-80
2022/06/01 11:50:53;;;;;;;2.53;2.15;;;;;;;15.78;56.13;101435.34;10459710;28;20775;-80
2022/06/01 11:56:13;;;;;;;6.78;2.58;;;;;;;15.90;59.98;101429.47;10469027;28;20048;-81
2022/06/01 12:01:32;;;;;;;4.18;2.67;;;;;;;15.19;58.45;101438.88;10436372;28;20037;-80
2022/06/01 12:06:58;;;;;;;3.53;2.08;;;;;;;15.28;57.87;101432.94;10485835;28;20049;-81
2022/06/01 12:12:00;;;;;;;3.15;2.00;;;;;;;16.55;54.48;101432.78;10460395;28;20037;-80
2022/06/01 12:17:17;;;;;;;2.40;1.80;;;;;;;16.74;53.30;101440.75;10466713;28;20122;-82
2022/06/01 12:28:31;;;;;;;2.47;1.90;;;;;;;16.59;52.92;101447.56;10466873;28;20045;-80
2022/06/01 12:33:33;;;;;;;3.35;2.30;;;;;;;15.95;55.86;101450.31;10440097;28;20513;-80
2022/06/01 12:38:38;;;;;;;4.28;2.90;;;;;;;15.67;57.32;101452.53;10451249;28;20049;-81
2022/06/01 12:43:46;;;;;;;4.10;2.92;;;;;;;16.11;57.11;101444.47;10451633;28;20045;-79
2022/06/01 12:48:48;;;;;;;4.53;2.83;;;;;;;15.73;57.21;101441.34;10462097;28;20066;-79
2022/06/01 12:53:53;;;;;;;4.28;3.50;;;;;;;16.57;54.80;101435.41;10452518;28;20072;-79
2022/06/01 12:58:55;;;;;;;4.30;3.58;;;;;;;15.70;58.71;101436.97;10457363;28;20045;-80
2022/06/01 13:03:59;;;;;;;7.05;3.95;;;;;;;16.49;58.94;101432.72;10460181;28;20075;-80
2022/06/01 13:09:07;;;;;;;4.25;3.60;;;;;;;16.59;56.95;101441.47;10455002;28;20049;-80
2022/06/01 13:14:10;;;;;;;3.38;2.42;;;;;;;16.21;53.94;101436.75;10458084;28;20045;-81
2022/06/01 13:19:20;;;;;;;5.88;3.80;;;;;;;16.57;54.32;101436.25;10485471;28;20045;-81
2022/06/01 13:24:23;;;;;;;5.25;3.85;;;;;;;17.11;55.94;101431.53;10503706;28;20193;-82
2022/06/01 13:29:36;;;;;;;6.20;4.10;;;;;;;17.17;56.36;101416.81;10484058;28;20044;-83
2022/06/01 13:34:38;;;;;;;6.65;4.38;;;;;;;17.50;56.76;101417.91;10483556;28;20044;-79
2022/06/01 13:40:00;;;;;;;5.05;3.78;;;;;;;17.41;53.59;101424.78;10480590;28;20136;-82
2022/06/01 13:45:36;;;;;;;5.47;4.30;;;;;;;18.05;52.46;101418.19;10448085;28;20045;-80
2022/06/01 13:50:42;;;;;;;8.18;4.63;;;;;;;16.90;55.23;101428.75;10463133;28;20595;-80
2022/06/01 13:56:15;;;;;;;7.55;4.50;;;;;;;17.05;55.67;101405.47;10453746;28;20117;-78
2022/06/01 14:01:39;;;;;;;5.32;3.33;;;;;;;16.87;53.26;101416.56;10467861;28;20462;-80
2022/06/01 14:06:51;;;;;;;3.33;2.75;;;;;;;16.94;51.21;101433.16;10483024;28;20103;-79
2022/06/01 14:11:54;;;;;;;4.93;2.30;;;;;;;17.28;50.66;101425.59;10465979;28;20106;-79
2022/06/01 14:16:58;;;;;;;3.70;2.05;;;;;;;17.05;52.28;101431.50;10464749;28;20056;-80
2022/06/01 14:22:08;;;;;;;6.72;1.90;;;;;;;16.46;52.87;101438.75;10491693;28;20053;-84
2022/06/01 14:32:30;;;;;;;2.13;1.60;;;;;;;16.81;51.55;101451.22;10483567;28;20044;-81
2022/06/01 14:37:32;;;;;;;1.77;1.40;;;;;;;16.45;50.86;101455.22;10483850;28;20041;-80
2022/06/01 14:42:34;;;;;;;1.80;1.05;;;;;;;16.58;49.36;101453.63;10458354;28;20048;-80
2022/06/01 14:47:36;;;;;;;1.30;1.10;;;;;;;17.50;47.85;101457.81;10432179;28;20464;-78
2022/06/01 14:52:38;;;;;;;1.60;1.17;;;;;;;17.07;47.92;101463.63;10439233;28;20139;-79
2022/06/01 14:57:40;;;;;;;2.20;1.55;;;;;;;16.45;50.46;101457.81;10483787;28;20098;-81
2022/06/01 15:02:46;;;;;;;4.45;2.20;;;;;;;16.33;51.32;101470.69;10482675;28;20520;-80
2022/06/01 15:07:47;;;;;;;2.67;1.92;;;;;;;17.02;51.10;101473.09;10480026;28;20039;-78
2022/06/01 15:12:50;;;;;;;3.70;2.15;;;;;;;16.62;51.05;101483.13;10455065;28;20049;-80
2022/06/01 15:17:52;;;;;;;3.67;2.03;;;;;;;16.74;49.28;101483.25;10461348;28;20044;-81
2022/06/01 15:22:54;;;;;;;3.78;2.28;;;;;;;16.91;49.84;101495.56;10501456;28;20098;-79
2022/06/01 15:27:56;;;;;;;4.28;2.00;;;;;;;16.37;49.93;101498.47;10482894;28;20052;-79
2022/06/01 15:43:39;;;;;;;5.22;2.25;;;;;;;17.20;50.73;101497.56;10480232;28;19925;-81
2022/06/01 15:48:48;;;;;;;3.50;2.40;;;;;;;16.67;51.85;101507.47;10454667;28;20611;-80
2022/06/01 15:53:49;;;;;;;3.92;2.63;;;;;;;16.41;52.39;101512.38;10478138;28;20590;-81
2022/06/01 15:58:51;;;;;;;4.50;2.67;;;;;;;16.20;52.18;101515.59;10486466;28;20052;-82
2022/06/01 16:03:53;;;;;;;3.90;2.80;;;;;;;16.02;54.50;101519.72;10478874;28;20047;-78
2022/06/01 16:09:15;;;;;;;6.43;2.97;;;;;;;15.96;53.29;101527.44;10487109;28;20086;-80
2022/06/01 16:14:20;;;;;;;3.83;3.25;;;;;;;16.00;54.00;101524.00;10463554;28;20048;-80
2022/06/01 16:19:21;;;;;;;5.60;3.42;;;;;;;16.23;55.75;101531.22;10493105;28;20057;-81
2022/06/01 16:24:23;;;;;;;5.50;3.47;;;;;;;15.92;54.69;101539.50;10494839;28;20052;-80
2022/06/01 16:29:25;;;;;;;5.15;3.00;;;;;;;15.61;52.61;101556.31;10493549;28;20036;-78
2022/06/01 16:34:26;;;;;;;4.65;3.03;;;;;;;15.74;53.42;101553.09;10462394;28;20049;-79
2022/06/01 16:39:28;;;;;;;5.78;3.28;;;;;;;15.80;52.43;101557.47;10479220;28;20090;-79
2022/06/01 16:44:45;;;;;;;4.20;3.03;;;;;;;16.14;51.99;101552.78;10482440;28;20056;-79
2022/06/01 16:49:47;;;;;;;4.90;2.88;;;;;;;16.20;53.32;101563.28;10490366;28;20060;-79
2022/06/01 16:54:48;;;;;;;5.00;2.83;;;;;;;15.81;52.44;101559.22;10485146;28;20516;-80
2022/06/01 16:59:51;;;;;;;5.28;2.90;;;;;;;15.71;53.42;101569.47;10466179;28;20041;-80
2022/06/01 17:04:55;;;;;;;4.28;2.60;;;;;;;15.65;54.12;101573.72;10458863;28;20059;-80
2022/06/01 17:09:56;;;;;;;4.90;2.80;;;;;;;15.32;53.41;101574.91;10453677;28;20541;-80
2022/06/01 17:14:58;;;;;;;4.13;3.05;;;;;;;15.38;53.70;101580.19;10458375;28;20040;-80
2022/06/01 17:20:01;;;;;;;3.55;2.80;;;;;;;15.51;53.53;101587.34;10488247;28;20037;-80
2022/06/01 17:25:04;;;;;;;4.07;2.60;;;;;;;15.27;53.29;101592.97;10471556;28;20048;-78
2022/06/01 17:30:06;;;;;;;6.20;2.80;;;;;;;15.88;54.14;101594.88;10463488;28;20037;-79
2022/06/01 17:35:11;;;;;;;3.60;2.25;;;;;;;15.91;52.38;101596.63;10476471;28;20040;-79
2022/06/01 17:40:13;;;;;;;3.88;1.90;;;;;;;15.67;52.14;101601.47;10485258;28;20052;-79
2022/06/01 17:45:15;;;;;;;2.45;1.85;;;;;;;15.06;54.61;101594.34;10464317;28;20110;-79
2022/06/01 17:50:19;;;;;;;5.68;2.17;;;;;;;14.91;55.55;101601.84;10475436;28;20460;-79
2022/06/01 17:55:23;;;;;;;2.38;1.80;;;;;;;15.19;54.57;101611.03;10456839;28;20505;-79
2022/06/01 18:00:24;;;;;;;2.67;1.63;;;;;;;15.04;53.76;101611.59;10484017;28;20102;-80
2022/06/01 18:05:28;;;;;;;2.58;2.10;;;;;;;14.98;56.06;101618.41;10479360;28;20576;-79
2022/06/01 18:10:36;;;;;;;3.38;1.80;;;;;;;14.53;56.36;101620.97;10474885;28;20056;-79
2022/06/01 18:15:42;;;;;;;2.95;1.70;;;;;;;14.48;56.54;101620.00;10465012;28;20041;-80
2022/06/01 18:20:47;;;;;;;3.33;1.85;;;;;;;14.53;55.39;101623.56;10454185;28;20116;-80
2022/06/01 18:25:52;;;;;;;3.22;2.20;;;;;;;14.62;55.07;101637.56;10463230;28;20452;-82
2022/06/01 18:30:56;;;;;;;4.15;2.05;;;;;;;14.65;56.86;101637.59;10488913;28;20056;-81
2022/06/01 18:35:58;;;;;;;3.70;2.30;;;;;;;14.65;57.36;101645.38;10485797;28;20079;-80
2022/06/01 18:41:00;;;;;;;3.67;2.33;;;;;;;14.51;58.73;101647.72;10462635;28;20466;-81
2022/06/01 18:46:03;;;;;;;3.40;2.70;;;;;;;14.24;60.25;101657.50;10455584;28;20041;-80
2022/06/01 18:51:29;;;;;;;3.53;2.20;;;;;;;14.21;60.05;101656.56;10463624;28;20071;-80
2022/06/01 18:56:42;;;;;;;4.18;2.45;;;;;;;14.31;60.97;101665.41;10464615;28;20051;-79
2022/06/01 19:01:43;;;;;;;3.63;2.45;;;;;;;14.31;60.46;101668.88;10491679;28;20045;-81
2022/06/01 19:06:51;;;;;;;2.88;2.25;;;;;;;14.28;60.76;101667.06;10488393;28;20054;-78
2022/06/01 19:11:53;;;;;;;2.85;2.33;;;;;;;14.07;61.59;101674.34;10487251;28;20037;-79
2022/06/01 19:16:57;;;;;;;3.25;2.30;;;;;;;13.96;62.74;101677.56;10498846;28;20074;-78
2022/06/01 19:22:02;;;;;;;3.60;2.22;;;;;;;13.95;63.43;101680.13;10477435;28;20086;-80
2022/06/01 19:27:11;;;;;;;3.17;2.28;;;;;;;13.91;62.52;101692.13;10465740;28;20049;-80
2022/06/01 19:32:33;;;;;;;2.13;1.77;;;;;;;14.06;64.18;101698.50;10465278;28;20040;-79
2022/06/01 19:48:16;;;;;;;6.40;3.20;;;;;;;13.41;66.05;101727.94;10465113;28;19920;-80
2022/06/01 19:53:18;;;;;;;4.85;3.20;;;;;;;13.43;66.56;101731.44;10461820;28;20159;-79
2022/06/01 19:58:19;;;;;;;4.38;3.25;;;;;;;13.34;66.10;101737.19;10477775;28;20049;-80
2022/06/01 20:03:21;;;;;;;7.47;3.55;;;;;;;13.39;65.28;101740.84;10477660;28;20052;-80
2022/06/01 20:08:23;;;;;;;5.03;3.55;;;;;;;13.44;65.83;101746.16;10497188;28;20098;-79
2022/06/01 20:13:24;;;;;;;4.63;3.08;;;;;;;13.41;66.72;101759.00;10473170;28;20061;-79
2022/06/01 20:18:30;;;;;;;5.90;2.95;;;;;;;13.43;67.42;101762.50;10472707;28;20045;-80
2022/06/01 20:23:32;;;;;;;4.30;3.20;;;;;;;13.38;67.67;101764.03;10488223;28;20074;-80
2022/06/01 20:28:33;;;;;;;4.82;3.28;;;;;;;13.28;67.33;101771.56;10481542;28;20041;-80
2022/06/01 20:33:35;;;;;;;3.92;2.88;;;;;;;13.26;67.36;101780.97;10462039;28;20052;-79
2022/06/01 20:38:37;;;;;;;5.47;3.60;;;;;;;13.20;68.21;101779.91;10485204;28;20101;-80
2022/06/01 20:43:38;;;;;;;4.85;3.38;;;;;;;13.23;68.50;101786.06;10494782;28;20063;-80
2022/06/01 20:48:41;;;;;;;5.90;3.50;;;;;;;13.07;69.32;101784.75;10475089;28;20048;-80
2022/06/01 20:53:42;;;;;;;5.97;4.07;;;;;;;13.04;68.86;101788.94;10487732;28;20052;-80
2022/06/01 20:58:44;;;;;;;4.80;3.85;;;;;;;13.06;68.43;101790.75;10477649;28;20055;-80
2022/06/01 21:03:46;;;;;;;5.20;3.78;;;;;;;13.01;68.11;101800.94;10488209;28;20098;-79
2022/06/01 21:08:48;;;;;;;5.53;3.70;;;;;;;13.08;68.27;101803.72;10487832;28;20662;-80
2022/06/01 21:13:49;;;;;;;7.80;4.63;;;;;;;13.01;68.43;101810.44;10482546;28;20052;-78
2022/06/01 21:18:51;;;;;;;4.10;3.25;;;;;;;12.98;68.93;101813.81;10465472;28;20041;-79
2022/06/01 21:23:53;;;;;;;6.30;4.45;;;;;;;12.83;68.95;101806.44;10462025;28;20044;-80
2022/06/01 21:28:54;;;;;;;6.72;4.45;;;;;;;12.65;70.28;101811.03;10475612;28;20041;-78
2022/06/01 21:33:56;;;;;;;7.45;4.57;;;;;;;12.53;70.69;101820.16;10470859;28;20041;-80
2022/06/01 21:39:00;;;;;;;5.13;4.13;;;;;;;12.42;70.63;101816.34;10464365;28;20052;-77
2022/06/01 21:44:02;;;;;;;6.03;4.35;;;;;;;12.25;71.42;101823.50;10487825;28;20072;-79
2022/06/01 21:49:04;;;;;;;7.25;4.70;;;;;;;12.06;71.39;101829.78;10496460;28;20040;-78
2022/06/01 21:54:06;;;;;;;5.82;4.43;;;;;;;11.96;71.52;101831.09;10493842;28;20048;-79
2022/06/01 21:59:08;;;;;;;6.00;4.38;;;;;;;11.84;72.08;101839.28;10450756;28;20049;-79
2022/06/01 22:04:12;;;;;;;5.93;4.47;;;;;;;11.75;72.19;101839.84;10470735;28;20136;-79
2022/06/01 22:09:13;;;;;;;6.50;4.60;;;;;;;11.54;73.37;101839.06;10473998;28;20272;-80
2022/06/01 22:14:15;;;;;;;6.75;4.90;;;;;;;11.55;72.99;101838.25;10489978;28;20099;-77
2022/06/01 22:19:16;;;;;;;8.15;5.40;;;;;;;11.53;73.51;101843.38;10459367;28;20094;-79
2022/06/01 22:24:18;;;;;;;8.35;5.20;;;;;;;11.47;73.35;101847.41;10483693;28;20111;-80
2022/06/01 22:29:24;;;;;;;7.80;5.20;;;;;;;11.44;73.61;101853.34;10496308;28;20044;-78
2022/06/01 22:34:26;;;;;;;8.63;5.22;;;;;;;11.14;74.56;101858.19;10506047;28;20118;-79
2022/06/01 22:39:28;;;;;;;8.15;5.10;;;;;;;11.15;74.81;101860.84;10477414;28;20570;-78
2022/06/01 22:44:46;;;;;;;7.35;5.32;;;;;;;11.17;73.83;101853.16;10503365;28;20094;-79
2022/06/01 22:49:52;;;;;;;7.10;5.30;;;;;;;11.02;75.41;101858.63;10474110;28;20068;-80
2022/06/01 22:54:54;;;;;;;9.23;5.97;;;;;;;10.99;75.46;101864.50;10493998;28;20049;-78
2022/06/01 22:59:56;;;;;;;9.30;5.50;;;;;;;10.79;75.10;101872.34;10480521;28;20045;-78
2022/06/01 23:04:59;;;;;;;6.82;5.18;;;;;;;10.61;75.47;101877.63;10491964;28;20070;-78
2022/06/01 23:10:01;;;;;;;7.63;5.25;;;;;;;10.47;76.21;101869.31;10484740;28;20048;-79
2022/06/01 23:15:04;;;;;;;7.03;5.20;;;;;;;10.49;75.22;101874.53;10492584;28;20049;-78
2022/06/01 23:20:20;;;;;;;6.55;5.18;;;;;;;10.34;75.48;101879.00;10491754;28;20191;-78
2022/06/01 23:25:22;;;;;;;6.53;4.85;;;;;;;10.32;76.23;101884.06;10500128;28;20044;-79
2022/06/01 23:30:29;;;;;;;9.15;6.25;;;;;;;10.43;77.24;101882.88;10496461;28;20048;-77
2022/06/01 23:35:48;;;;;;;10.18;6.10;;;;;;;10.37;77.15;101882.63;10486868;28;20049;-79
2022/06/01 23:40:59;;;;;;;7.88;5.78;;;;;;;9.98;77.91;101887.78;10493263;28;20055;-78
2022/06/01 23:46:23;;;;;;;8.70;6.10;;;;;;;9.92;78.47;101890.09;10485058;28;20462;-78
2022/06/01 23:51:56;;;;;;;8.07;5.90;;;;;;;9.79;78.72;101899.81;10474391;28;20063;-78
2022/06/01 23:57:16;;;;;;;7.80;5.85;;;;;;;9.70;77.80;101899.41;10466652;28;20044;-79
